createdAt,value
2023-04-03T00:00:02.503Z,102291.78
2023-04-03T00:02:30.271Z,102298.78
2023-04-03T00:04:56.692Z,102289.09
2023-04-03T00:07:23.149Z,102293.25
2023-04-03T00:09:49.540Z,102304.84
2023-04-03T00:12:15.982Z,102294.91
2023-04-03T00:14:42.643Z,102298.63
2023-04-03T00:17:09.514Z,102300.84
2023-04-03T00:19:36.333Z,102310.53
2023-04-03T00:22:02.789Z,102304.16
2023-04-03T00:24:29.083Z,102298.16
2023-04-03T00:26:55.404Z,102296.97
2023-04-03T00:29:21.761Z,102307.41
2023-04-03T00:31:48.056Z,102315.44
2023-04-03T00:34:14.413Z,102306.41
2023-04-03T00:36:40.789Z,102302.69
2023-04-03T00:39:07.452Z,102307.41
2023-04-03T00:41:33.794Z,102306.22
2023-04-03T00:44:00.129Z,102305.25
2023-04-03T00:46:26.639Z,102297.72
2023-04-03T00:48:53.549Z,102310.91
2023-04-03T00:51:19.899Z,102303.91
2023-04-03T00:53:46.234Z,102304.91
2023-04-03T00:56:12.603Z,102303.91
2023-04-03T00:58:38.992Z,102303.25
2023-04-03T01:01:05.922Z,102295.56
2023-04-03T01:03:33.096Z,102306.91
2023-04-03T01:06:00.565Z,102309.94
2023-04-03T01:08:27.098Z,102301.56
2023-04-03T01:10:53.542Z,102300.91
2023-04-03T01:13:19.904Z,102304.25
2023-04-03T01:15:46.644Z,102304.25
2023-04-03T01:18:13.006Z,102303.59
2023-04-03T01:20:39.636Z,102299.78
2023-04-03T01:23:06.460Z,102306.81
2023-04-03T01:25:32.838Z,102303.66
2023-04-03T01:27:59.480Z,102310.03
2023-04-03T01:30:26.077Z,102302.63
2023-04-03T01:32:52.615Z,102311.69
2023-04-03T01:35:18.972Z,102303.81
2023-04-03T01:37:45.263Z,102314.66
2023-04-03T01:40:11.625Z,102308.38
2023-04-03T01:42:38.185Z,102314.56
2023-04-03T01:45:04.594Z,102316.75
2023-04-03T01:47:30.935Z,102326.75
2023-04-03T01:49:57.417Z,102319.75
2023-04-03T01:52:23.963Z,102323.31
2023-04-03T01:54:50.330Z,102320.28
2023-04-03T01:57:16.859Z,102322.97
2023-04-03T01:59:43.425Z,102323.47
2023-04-03T02:02:10.087Z,102334.84
2023-04-03T02:04:36.500Z,102327.00
2023-04-03T02:07:02.967Z,102329.88
2023-04-03T02:09:29.558Z,102325.38
2023-04-03T02:11:55.918Z,102330.03
2023-04-03T02:14:22.292Z,102334.56
2023-04-03T02:16:48.724Z,102335.41
2023-04-03T02:19:15.270Z,102331.88
2023-04-03T02:21:41.875Z,102329.72
2023-04-03T02:24:08.679Z,102332.59
2023-04-03T02:26:35.268Z,102322.88
2023-04-03T02:29:01.669Z,102329.91
2023-04-03T02:31:28.015Z,102344.66
2023-04-03T02:33:55.295Z,102342.47
2023-04-03T02:36:21.649Z,102341.66
2023-04-03T02:38:48.031Z,102342.28
2023-04-03T02:41:14.604Z,102343.47
2023-04-03T02:43:41.034Z,102347.81
2023-04-03T02:46:08.025Z,102354.19
2023-04-03T02:48:34.750Z,102361.75
2023-04-03T02:51:01.228Z,102365.75
2023-04-03T02:53:27.673Z,102361.38
2023-04-03T02:55:54.202Z,102368.78
2023-04-03T02:58:21.109Z,102366.44
2023-04-03T03:00:47.627Z,102361.41
2023-04-03T03:03:14.777Z,102364.09
2023-04-03T03:05:41.096Z,102368.09
2023-04-03T03:08:07.400Z,102368.78
2023-04-03T03:10:33.847Z,102373.66
2023-04-03T03:13:00.180Z,102365.13
2023-04-03T03:15:26.611Z,102367.16
2023-04-03T03:17:52.973Z,102365.28
2023-04-03T03:20:19.424Z,102369.53
2023-04-03T03:22:45.905Z,102365.97
2023-04-03T03:25:12.306Z,102366.97
2023-04-03T03:27:38.667Z,102370.47
2023-04-03T03:30:05.054Z,102375.84
2023-04-03T03:32:31.784Z,102372.13
2023-04-03T03:34:58.169Z,102377.69
2023-04-03T03:37:24.486Z,102369.66
2023-04-03T03:39:51.041Z,102373.97
2023-04-03T03:42:17.565Z,102377.47
2023-04-03T03:44:44.173Z,102373.69
2023-04-03T03:47:10.511Z,102381.91
2023-04-03T03:49:36.830Z,102374.47
2023-04-03T03:52:03.334Z,102376.53
2023-04-03T03:54:29.633Z,102373.88
2023-04-03T03:56:56.048Z,102371.31
2023-04-03T03:59:22.565Z,102380.25
2023-04-03T04:01:48.916Z,102383.44
2023-04-03T04:04:15.405Z,102377.59
2023-04-03T04:06:41.800Z,102383.25
2023-04-03T04:09:08.121Z,102377.72
2023-04-03T04:11:34.635Z,102377.59
2023-04-03T04:14:01.021Z,102380.28
2023-04-03T04:16:27.418Z,102387.16
2023-04-03T04:18:54.005Z,102393.84
2023-04-03T04:21:20.478Z,102385.09
2023-04-03T04:23:46.771Z,102391.97
2023-04-03T04:26:13.257Z,102382.41
2023-04-03T04:28:39.612Z,102393.50
2023-04-03T04:31:06.398Z,102396.19
2023-04-03T04:33:33.057Z,102395.66
2023-04-03T04:35:59.670Z,102385.47
2023-04-03T04:38:26.397Z,102397.66
2023-04-03T04:40:52.702Z,102392.50
2023-04-03T04:43:19.566Z,102398.31
2023-04-03T04:45:46.041Z,102395.00
2023-04-03T04:48:12.610Z,102391.28
2023-04-03T04:50:39.028Z,102393.97
2023-04-03T04:53:05.298Z,102392.09
2023-04-03T04:55:31.625Z,102391.31
2023-04-03T04:57:57.974Z,102403.69
2023-04-03T05:00:24.430Z,102403.69
2023-04-03T05:02:51.094Z,102406.38
2023-04-03T05:05:17.531Z,102400.84
2023-04-03T05:07:44.010Z,102406.72
2023-04-03T05:10:10.352Z,102400.38
2023-04-03T05:12:36.671Z,102412.94
2023-04-03T05:15:02.998Z,102413.25
2023-04-03T05:17:29.654Z,102408.44
2023-04-03T05:19:56.051Z,102418.28
2023-04-03T05:22:22.498Z,102421.13
2023-04-03T05:24:48.958Z,102416.16
2023-04-03T05:27:15.390Z,102413.31
2023-04-03T05:29:42.599Z,102422.84
2023-04-03T05:32:10.126Z,102421.16
2023-04-03T05:34:36.503Z,102427.19
2023-04-03T05:37:02.815Z,102421.63
2023-04-03T05:39:29.410Z,102427.75
2023-04-03T05:41:56.139Z,102428.75
2023-04-03T05:44:22.481Z,102425.81
2023-04-03T05:46:48.864Z,102423.50
2023-04-03T05:49:15.556Z,102430.72
2023-04-03T05:51:41.848Z,102433.88
2023-04-03T05:54:08.191Z,102431.38
2023-04-03T05:56:34.606Z,102430.56
2023-04-03T05:59:01.024Z,102433.03
2023-04-03T06:01:27.391Z,102436.88
2023-04-03T06:03:54.014Z,102432.72
2023-04-03T06:06:20.538Z,102433.72
2023-04-03T06:08:47.024Z,102436.25
2023-04-03T06:11:13.382Z,102442.41
2023-04-03T06:13:40.036Z,102443.25
2023-04-03T06:16:06.562Z,102446.41
2023-04-03T06:18:32.947Z,102445.91
2023-04-03T06:20:59.490Z,102442.22
2023-04-03T06:23:25.936Z,102447.28
2023-04-03T06:25:52.426Z,102451.75
2023-04-03T06:28:18.777Z,102448.59
2023-04-03T06:30:45.211Z,102451.59
2023-04-03T06:33:11.815Z,102454.25
2023-04-03T06:35:38.335Z,102451.44
2023-04-03T06:38:04.754Z,102451.91
2023-04-03T06:40:31.190Z,102457.25
2023-04-03T06:42:57.510Z,102463.31
2023-04-03T06:45:23.870Z,102458.59
2023-04-03T06:47:50.272Z,102459.59
2023-04-03T06:50:16.663Z,102465.44
2023-04-03T06:52:43.222Z,102473.63
2023-04-03T06:55:10.199Z,102470.28
2023-04-03T06:57:36.683Z,102464.22
2023-04-03T07:00:03.027Z,102467.63
2023-04-03T07:02:29.625Z,102472.44
2023-04-03T07:04:56.207Z,102478.31
2023-04-03T07:07:23.047Z,102478.97
2023-04-03T07:09:49.366Z,102486.69
2023-04-03T07:12:15.785Z,102484.66
2023-04-03T07:14:42.307Z,102490.72
2023-04-03T07:17:09.196Z,102494.19
2023-04-03T07:19:35.749Z,102490.84
2023-04-03T07:22:02.118Z,102492.03
2023-04-03T07:24:28.791Z,102498.22
2023-04-03T07:26:55.239Z,102503.44
2023-04-03T07:29:21.709Z,102498.03
2023-04-03T07:31:48.112Z,102505.28
2023-04-03T07:34:14.926Z,102504.59
2023-04-03T07:36:41.326Z,102508.13
2023-04-03T07:39:07.722Z,102508.78
2023-04-03T07:41:34.084Z,102514.66
2023-04-03T07:44:00.855Z,102511.28
2023-04-03T07:46:28.111Z,102510.97
2023-04-03T07:48:55.272Z,102510.81
2023-04-03T07:51:23.427Z,102516.19
2023-04-03T07:53:49.805Z,102521.69
2023-04-03T07:56:16.515Z,102521.53
2023-04-03T07:58:42.801Z,102515.84
2023-04-03T08:01:10.215Z,102509.31
2023-04-03T08:03:37.147Z,102512.16
2023-04-03T08:06:03.716Z,102512.66
2023-04-03T08:08:30.158Z,102516.16
2023-04-03T08:10:56.478Z,102513.16
2023-04-03T08:13:23.099Z,102508.44
2023-04-03T08:15:49.913Z,102515.84
2023-04-03T08:18:16.286Z,102508.13
2023-04-03T08:20:42.937Z,102510.13
2023-04-03T08:23:09.302Z,102513.50
2023-04-03T08:25:36.188Z,102506.81
2023-04-03T08:28:03.590Z,102512.00
2023-04-03T08:30:29.911Z,102508.63
2023-04-03T08:32:56.350Z,102499.03
2023-04-03T08:35:22.834Z,102501.13
2023-04-03T08:37:49.103Z,102496.41
2023-04-03T08:40:15.524Z,102500.59
2023-04-03T08:42:42.821Z,102505.47
2023-04-03T08:45:09.394Z,102493.09
2023-04-03T08:47:36.701Z,102498.44
2023-04-03T08:50:03.356Z,102497.28
2023-04-03T08:52:30.125Z,102499.25
2023-04-03T08:54:56.388Z,102500.44
2023-04-03T08:57:23.212Z,102498.44
2023-04-03T08:59:49.631Z,102512.19
2023-04-03T09:02:16.016Z,102504.97
2023-04-03T09:04:42.492Z,102502.78
2023-04-03T09:07:08.890Z,102497.72
2023-04-03T09:09:35.261Z,102508.16
2023-04-03T09:12:01.611Z,102505.63
2023-04-03T09:14:28.124Z,102513.84
2023-04-03T09:16:54.480Z,102500.59
2023-04-03T09:19:20.930Z,102499.63
2023-04-03T09:21:47.353Z,102496.94
2023-04-03T09:24:13.756Z,102497.09
2023-04-03T09:26:40.687Z,102490.03
2023-04-03T09:29:07.722Z,102502.44
2023-04-03T09:31:34.312Z,102500.56
2023-04-03T09:34:00.823Z,102502.94
2023-04-03T09:36:27.510Z,102496.72
2023-04-03T09:38:54.569Z,102491.91
2023-04-03T09:41:20.990Z,102492.22
2023-04-03T09:43:47.351Z,102490.41
2023-04-03T09:46:13.723Z,102494.75
2023-04-03T09:48:40.106Z,102497.28
2023-04-03T09:51:06.580Z,102496.66
2023-04-03T09:53:33.567Z,102497.13
2023-04-03T09:55:59.974Z,102483.75
2023-04-03T09:58:28.110Z,102495.81
2023-04-03T10:00:58.358Z,102493.59
2023-04-03T10:03:24.790Z,102492.25
2023-04-03T10:05:51.185Z,102485.56
2023-04-03T10:08:17.555Z,102489.41
2023-04-03T10:10:43.923Z,102481.34
2023-04-03T10:13:12.208Z,102490.03
2023-04-03T10:15:40.876Z,102480.91
2023-04-03T10:18:21.668Z,102481.91
2023-04-03T10:20:50.673Z,102485.38
2023-04-03T10:23:17.357Z,102484.53
2023-04-03T10:25:43.827Z,102482.22
2023-04-03T10:28:10.141Z,102479.38
2023-04-03T10:30:36.849Z,102472.00
2023-04-03T10:33:03.873Z,102479.41
2023-04-03T10:35:30.718Z,102481.38
2023-04-03T10:37:57.020Z,102476.03
2023-04-03T10:40:23.401Z,102475.53
2023-04-03T10:42:50.096Z,102488.59
2023-04-03T10:45:16.702Z,102474.03
2023-04-03T10:47:43.117Z,102481.06
2023-04-03T10:50:09.752Z,102477.03
2023-04-03T10:52:36.121Z,102472.84
2023-04-03T10:55:02.625Z,102465.28
2023-04-03T10:57:29.338Z,102465.28
2023-04-03T10:59:55.699Z,102467.16
2023-04-03T11:02:22.238Z,102465.31
2023-04-03T11:04:48.839Z,102459.63
2023-04-03T11:07:15.142Z,102456.97
2023-04-03T11:09:41.534Z,102465.31
2023-04-03T11:12:07.953Z,102456.97
2023-04-03T11:14:34.482Z,102465.00
2023-04-03T11:17:01.182Z,102460.66
2023-04-03T11:19:28.199Z,102462.00
2023-04-03T11:21:55.141Z,102464.34
2023-04-03T11:24:21.536Z,102460.66
2023-04-03T11:26:47.916Z,102462.00
2023-04-03T11:29:18.036Z,102468.69
2023-04-03T11:31:51.349Z,102458.31
2023-04-03T11:34:18.116Z,102460.97
2023-04-03T11:36:44.580Z,102457.97
2023-04-03T11:39:11.386Z,102455.63
2023-04-03T11:41:38.009Z,102461.31
2023-04-03T11:44:04.454Z,102465.84
2023-04-03T11:46:30.952Z,102459.16
2023-04-03T11:48:57.353Z,102465.53
2023-04-03T11:51:23.987Z,102468.69
2023-04-03T11:53:50.314Z,102461.84
2023-04-03T11:56:16.681Z,102461.31
2023-04-03T11:58:43.004Z,102462.50
2023-04-03T12:01:09.288Z,102462.00
2023-04-03T12:03:35.674Z,102455.63
2023-04-03T12:06:02.268Z,102465.00
2023-04-03T12:08:28.652Z,102466.88
2023-04-03T12:10:55.241Z,102466.66
2023-04-03T12:13:21.816Z,102469.34
2023-04-03T12:15:48.175Z,102467.03
2023-04-03T12:18:14.620Z,102460.81
2023-04-03T12:20:41.795Z,102462.00
2023-04-03T12:23:08.167Z,102456.31
2023-04-03T12:25:34.815Z,102448.63
2023-04-03T12:28:01.325Z,102450.44
2023-04-03T12:30:28.003Z,102450.44
2023-04-03T12:33:05.689Z,102449.63
2023-04-03T12:35:36.893Z,102448.94
2023-04-03T12:38:04.017Z,102443.59
2023-04-03T12:40:30.310Z,102443.25
2023-04-03T12:42:57.330Z,102449.97
2023-04-03T12:45:23.642Z,102440.75
2023-04-03T12:47:50.171Z,102449.31
2023-04-03T12:50:16.519Z,102439.09
2023-04-03T12:52:43.286Z,102440.91
2023-04-03T12:55:09.877Z,102440.91
2023-04-03T12:57:36.878Z,102442.94
2023-04-03T13:00:03.326Z,102437.22
2023-04-03T13:02:30.475Z,102429.19
2023-04-03T13:04:57.146Z,102425.53
2023-04-03T13:07:23.758Z,102423.19
2023-04-03T13:09:50.562Z,102420.03
2023-04-03T13:12:17.218Z,102417.34
2023-04-03T13:14:44.053Z,102428.72
2023-04-03T13:17:10.367Z,102420.84
2023-04-03T13:19:37.059Z,102417.19
2023-04-03T13:22:03.460Z,102415.16
2023-04-03T13:24:30.073Z,102420.47
2023-04-03T13:26:56.477Z,102419.16
2023-04-03T13:29:29.853Z,102408.28
2023-04-03T13:31:57.232Z,102425.22
2023-04-03T13:34:23.665Z,102415.16
2023-04-03T13:36:50.098Z,102412.94
2023-04-03T13:39:16.606Z,102417.63
2023-04-03T13:41:43.056Z,102414.28
2023-04-03T13:44:12.511Z,102424.78
2023-04-03T13:46:39.202Z,102407.84
2023-04-03T13:49:05.781Z,102401.81
2023-04-03T13:51:32.399Z,102394.72
2023-04-03T13:53:59.192Z,102396.56
2023-04-03T13:56:25.495Z,102393.66
2023-04-03T13:58:51.983Z,102392.97
2023-04-03T14:01:18.537Z,102389.22
2023-04-03T14:03:44.966Z,102392.84
2023-04-03T14:06:12.096Z,102385.81
2023-04-03T14:08:43.271Z,102383.94
2023-04-03T14:11:10.357Z,102380.00
2023-04-03T14:13:36.637Z,102380.94
2023-04-03T14:16:14.999Z,102376.34
2023-04-03T14:18:42.220Z,102376.28
2023-04-03T14:21:08.623Z,102379.91
2023-04-03T14:23:35.020Z,102375.03
2023-04-03T14:26:01.527Z,102375.13
2023-04-03T14:28:27.936Z,102371.53
2023-04-03T14:30:54.359Z,102373.47
2023-04-03T14:33:20.700Z,102371.91
2023-04-03T14:35:47.035Z,102372.88
2023-04-03T14:38:13.494Z,102370.47
2023-04-03T14:40:39.997Z,102367.88
2023-04-03T14:43:06.765Z,102362.63
2023-04-03T14:45:33.114Z,102371.81
2023-04-03T14:47:59.625Z,102367.72
2023-04-03T14:50:26.146Z,102361.16
2023-04-03T14:52:52.552Z,102362.81
2023-04-03T14:55:18.998Z,102362.44
2023-04-03T14:57:45.647Z,102354.66
2023-04-03T15:00:12.040Z,102356.31
2023-04-03T15:02:38.870Z,102362.19
2023-04-03T15:05:05.663Z,102358.28
2023-04-03T15:07:32.099Z,102365.13
2023-04-03T15:09:58.494Z,102357.34
2023-04-03T15:12:24.865Z,102362.97
2023-04-03T15:14:57.414Z,102354.09
2023-04-03T15:17:27.367Z,102360.75
2023-04-03T15:19:53.857Z,102369.91
2023-04-03T15:22:20.320Z,102362.34
2023-04-03T15:24:47.030Z,102367.13
2023-04-03T15:27:13.420Z,102361.38
2023-04-03T15:29:40.420Z,102368.06
2023-04-03T15:32:06.880Z,102363.97
2023-04-03T15:34:33.276Z,102357.38
2023-04-03T15:36:59.660Z,102363.78
2023-04-03T15:39:26.051Z,102362.75
2023-04-03T15:41:52.433Z,102356.16
2023-04-03T15:44:18.851Z,102348.53
2023-04-03T15:46:45.248Z,102349.44
2023-04-03T15:49:11.790Z,102353.41
2023-04-03T15:51:38.448Z,102355.53
2023-04-03T15:54:04.893Z,102358.50
2023-04-03T15:56:31.217Z,102358.78
2023-04-03T15:58:57.868Z,102357.38
2023-04-03T16:01:24.461Z,102359.47
2023-04-03T16:03:50.892Z,102361.59
2023-04-03T16:06:18.189Z,102361.84
2023-04-03T16:08:44.490Z,102358.78
2023-04-03T16:11:11.346Z,102354.03
2023-04-03T16:13:37.955Z,102352.44
2023-04-03T16:16:04.576Z,102348.31
2023-04-03T16:18:31.195Z,102349.59
2023-04-03T16:20:57.980Z,102352.09
2023-04-03T16:23:24.324Z,102354.19
2023-04-03T16:25:50.618Z,102351.13
2023-04-03T16:28:17.089Z,102347.03
2023-04-03T16:30:43.470Z,102345.59
2023-04-03T16:33:09.838Z,102351.59
2023-04-03T16:35:36.460Z,102346.69
2023-04-03T16:38:03.060Z,102350.84
2023-04-03T16:40:29.677Z,102343.38
2023-04-03T16:42:56.274Z,102341.97
2023-04-03T16:45:22.578Z,102345.94
2023-04-03T16:47:48.995Z,102347.88
2023-04-03T16:50:15.682Z,102355.53
2023-04-03T16:52:42.382Z,102352.06
2023-04-03T16:55:09.144Z,102347.97
2023-04-03T16:57:35.778Z,102360.41
2023-04-03T17:00:02.128Z,102357.34
2023-04-03T17:02:28.676Z,102351.53
2023-04-03T17:04:55.037Z,102354.88
2023-04-03T17:07:21.675Z,102349.72
2023-04-03T17:09:48.276Z,102353.03
2023-04-03T17:12:15.878Z,102354.53
2023-04-03T17:14:42.252Z,102355.13
2023-04-03T17:17:08.810Z,102354.56
2023-04-03T17:19:35.746Z,102354.97
2023-04-03T17:22:02.053Z,102354.59
2023-04-03T17:24:28.442Z,102364.94
2023-04-03T17:26:55.240Z,102357.50
2023-04-03T17:29:21.647Z,102357.31
2023-04-03T17:31:48.160Z,102358.59
2023-04-03T17:34:14.644Z,102354.00
2023-04-03T17:36:41.728Z,102368.56
2023-04-03T17:39:08.355Z,102366.50
2023-04-03T17:41:35.285Z,102372.69
2023-04-03T17:44:01.663Z,102363.97
2023-04-03T17:46:28.110Z,102366.69
2023-04-03T17:48:54.618Z,102375.00
2023-04-03T17:51:20.972Z,102371.25
2023-04-03T17:53:47.308Z,102372.28
2023-04-03T17:56:13.893Z,102382.47
2023-04-03T17:58:40.402Z,102378.13
2023-04-03T18:01:07.260Z,102378.97
2023-04-03T18:03:33.590Z,102376.47
2023-04-03T18:05:59.958Z,102376.72
2023-04-03T18:08:26.311Z,102379.81
2023-04-03T18:10:52.890Z,102374.66
2023-04-03T18:13:20.209Z,102376.72
2023-04-03T18:15:46.672Z,102382.09
2023-04-03T18:18:13.138Z,102380.84
2023-04-03T18:20:39.590Z,102377.03
2023-04-03T18:23:06.174Z,102381.59
2023-04-03T18:28:03.849Z,102383.78
2023-04-03T18:30:30.168Z,102382.75
2023-04-03T18:32:56.537Z,102382.69
2023-04-03T18:35:23.114Z,102382.25
2023-04-03T18:37:49.991Z,102377.66
2023-04-03T18:40:16.494Z,102380.13
2023-04-03T18:42:42.885Z,102376.13
2023-04-03T18:45:09.576Z,102382.09
2023-04-03T18:47:36.258Z,102376.47
2023-04-03T18:50:02.941Z,102379.72
2023-04-03T18:52:29.372Z,102387.56
2023-04-03T18:54:55.716Z,102394.38
2023-04-03T18:57:22.166Z,102390.59
2023-04-03T18:59:48.554Z,102383.94
2023-04-03T19:02:14.982Z,102392.41
2023-04-03T19:04:41.515Z,102386.56
2023-04-03T19:07:07.875Z,102386.78
2023-04-03T19:09:34.266Z,102380.13
2023-04-03T19:12:00.770Z,102384.00
2023-04-03T19:14:27.115Z,102381.72
2023-04-03T19:16:53.574Z,102379.59
2023-04-03T19:19:19.962Z,102385.38
2023-04-03T19:21:46.266Z,102386.56
2023-04-03T19:24:12.638Z,102382.81
2023-04-03T19:26:39.173Z,102386.94
2023-04-03T19:29:05.802Z,102385.88
2023-04-03T19:31:32.474Z,102386.25
2023-04-03T19:33:58.847Z,102384.78
2023-04-03T19:36:25.394Z,102377.09
2023-04-03T19:38:51.870Z,102379.34
2023-04-03T19:41:18.236Z,102383.06
2023-04-03T19:43:45.035Z,102381.78
2023-04-03T19:46:11.511Z,102381.78
2023-04-03T19:48:37.922Z,102381.97
2023-04-03T19:51:04.339Z,102382.53
2023-04-03T19:53:30.814Z,102384.41
2023-04-03T19:55:57.172Z,102380.22
2023-04-03T19:58:23.642Z,102384.13
2023-04-03T20:00:50.089Z,102387.81
2023-04-03T20:03:16.606Z,102378.72
2023-04-03T20:05:42.942Z,102380.75
2023-04-03T20:08:09.437Z,102376.59
2023-04-03T20:10:35.826Z,102377.81
2023-04-03T20:13:02.186Z,102365.59
2023-04-03T20:15:28.823Z,102368.66
2023-04-03T20:17:55.533Z,102366.34
2023-04-03T20:20:21.906Z,102374.44
2023-04-03T20:22:48.321Z,102367.75
2023-04-03T20:25:17.491Z,102376.81
2023-04-03T20:27:50.425Z,102371.00
2023-04-03T20:30:16.882Z,102373.25
2023-04-03T20:32:43.326Z,102376.75
2023-04-03T20:35:09.694Z,102368.88
2023-04-03T20:37:36.099Z,102372.59
2023-04-03T20:40:02.943Z,102373.34
2023-04-03T20:42:29.297Z,102369.44
2023-04-03T20:44:55.630Z,102373.78
2023-04-03T20:47:22.239Z,102371.69
2023-04-03T20:49:49.460Z,102360.47
2023-04-03T20:52:16.055Z,102369.19
2023-04-03T20:54:42.682Z,102353.41
2023-04-03T20:57:09.279Z,102361.66
2023-04-03T20:59:35.692Z,102357.69
2023-04-03T21:02:02.287Z,102365.31
2023-04-03T21:04:28.650Z,102365.31
2023-04-03T21:06:55.674Z,102376.88
2023-04-03T21:09:22.073Z,102372.69
2023-04-03T21:11:48.402Z,102371.03
2023-04-03T21:14:14.940Z,102376.59
2023-04-03T21:16:41.452Z,102373.28
2023-04-03T21:19:07.836Z,102371.63
2023-04-03T21:21:34.641Z,102364.56
2023-04-03T21:24:01.605Z,102363.91
2023-04-03T21:26:28.124Z,102371.31
2023-04-03T21:28:54.640Z,102368.00
2023-04-03T21:31:21.366Z,102369.66
2023-04-03T21:33:47.923Z,102370.69
2023-04-03T21:36:14.413Z,102365.88
2023-04-03T21:38:41.190Z,102371.44
2023-04-03T21:41:07.661Z,102363.25
2023-04-03T21:43:34.260Z,102366.16
2023-04-03T21:46:00.714Z,102361.59
2023-04-03T21:48:27.082Z,102364.47
2023-04-03T21:50:54.484Z,102364.03
2023-04-03T21:53:20.934Z,102369.41
2023-04-03T21:55:47.650Z,102359.00
2023-04-03T21:58:14.032Z,102362.91
2023-04-03T22:00:40.674Z,102366.44
2023-04-03T22:03:10.293Z,102366.78
2023-04-03T22:05:37.734Z,102367.16
2023-04-03T22:08:04.114Z,102359.09
2023-04-03T22:10:30.503Z,102367.50
2023-04-03T22:12:57.219Z,102364.81
2023-04-03T22:15:23.605Z,102371.59
2023-04-03T22:17:50.107Z,102360.00
2023-04-03T22:20:16.552Z,102367.03
2023-04-03T22:22:43.431Z,102361.19
2023-04-03T22:25:10.080Z,102360.56
2023-04-03T22:27:36.549Z,102356.41
2023-04-03T22:30:03.082Z,102355.56
2023-04-03T22:32:29.686Z,102359.44
2023-04-03T22:34:56.040Z,102356.94
2023-04-03T22:37:22.362Z,102357.78
2023-04-03T22:39:48.817Z,102362.31
2023-04-03T22:42:15.737Z,102363.34
2023-04-03T22:44:42.220Z,102361.84
2023-04-03T22:47:08.852Z,102362.03
2023-04-03T22:49:35.592Z,102355.00
2023-04-03T22:52:02.045Z,102361.34
2023-04-03T22:54:28.626Z,102361.53
2023-04-03T22:56:55.161Z,102359.88
2023-04-03T22:59:21.772Z,102366.09
2023-04-03T23:01:48.465Z,102360.06
2023-04-03T23:04:14.975Z,102362.94
2023-04-03T23:06:41.346Z,102358.75
2023-04-03T23:09:07.870Z,102366.00
2023-04-03T23:11:34.355Z,102368.66
2023-04-03T23:14:01.010Z,102369.88
2023-04-03T23:16:27.392Z,102365.31
2023-04-03T23:18:53.778Z,102369.88
2023-04-03T23:21:20.291Z,102377.44
2023-04-03T23:23:46.881Z,102362.16
2023-04-03T23:26:13.366Z,102367.72
2023-04-03T23:28:39.793Z,102371.78
2023-04-03T23:31:06.368Z,102369.78
2023-04-03T23:33:32.958Z,102366.25
2023-04-03T23:35:59.398Z,102372.81
2023-04-03T23:38:25.796Z,102368.47
2023-04-03T23:40:52.560Z,102375.50
2023-04-03T23:43:19.082Z,102375.84
2023-04-03T23:45:45.504Z,102375.03
2023-04-03T23:48:11.909Z,102374.19
2023-04-03T23:50:38.511Z,102367.16
2023-04-03T23:53:05.094Z,102375.38
2023-04-03T23:55:31.746Z,102374.53
2023-04-03T23:57:58.166Z,102374.53
